Time;durP1;ratioP1;P1;durP2;ratioP2;P2;SDS_P1;SDS_P2;PMS_P1;PMS_P2;Temp;Humidity;BMP_temperature;BMP_pressure;BME280_temperature;BME280_humidity;BME280_pressure;Samples;Min_cycle;Max_cycle;Signal;HPM_P1;HPM_P2
2024/01/27 00:00:17;;;;;;;5.30;4.60;;;;;;;2.34;77.96;99958.69;105944;1256;60411;-71
2024/01/27 00:02:44;;;;;;;6.50;5.10;;;;;;;2.33;77.97;99962.77;106239;1256;60407;-71
2024/01/27 00:05:11;;;;;;;6.00;4.70;;;;;;;2.33;78.04;99960.64;106088;1256;65177;-68
2024/01/27 00:07:38;;;;;;;5.50;4.80;;;;;;;2.34;78.07;99962.84;105928;1256;60469;-71
2024/01/27 00:10:05;;;;;;;6.40;4.50;;;;;;;2.34;78.14;99962.54;105274;1257;63703;-69
2024/01/27 00:12:32;;;;;;;6.00;4.80;;;;;;;2.32;78.13;99958.44;105999;1255;60418;-69
2024/01/27 00:14:59;;;;;;;6.10;5.00;;;;;;;2.30;78.14;99961.97;106124;1251;60510;-70
2024/01/27 00:17:27;;;;;;;7.10;6.00;;;;;;;2.28;78.17;99962.08;105983;1256;65203;-68
2024/01/27 00:19:54;;;;;;;6.90;5.60;;;;;;;2.28;78.30;99963.51;106053;1251;60478;-69
2024/01/27 00:22:21;;;;;;;6.10;5.40;;;;;;;2.29;78.33;99961.88;105964;1256;62679;-70
2024/01/27 00:24:48;;;;;;;6.40;5.40;;;;;;;2.28;78.35;99960.70;105852;1256;60427;-71
2024/01/27 00:27:15;;;;;;;6.70;5.00;;;;;;;2.28;78.36;99962.30;105898;1256;60344;-70
2024/01/27 00:29:42;;;;;;;7.10;5.10;;;;;;;2.28;78.39;99963.50;105953;1251;64002;-70
2024/01/27 00:32:08;;;;;;;6.00;5.10;;;;;;;2.28;78.41;99964.15;106122;1257;60903;-70
2024/01/27 00:34:35;;;;;;;6.30;4.90;;;;;;;2.29;78.50;99962.35;106101;1256;62544;-70
2024/01/27 00:37:02;;;;;;;5.30;4.20;;;;;;;2.30;78.45;99959.40;105940;1256;60854;-69
2024/01/27 00:39:28;;;;;;;6.40;5.10;;;;;;;2.30;78.48;99959.92;106044;1255;60534;-70
2024/01/27 00:41:58;;;;;;;6.50;5.10;;;;;;;2.29;78.49;99963.06;105951;1253;65266;-70
2024/01/27 00:44:25;;;;;;;6.30;5.40;;;;;;;2.30;78.54;99967.71;106083;1256;60351;-70
2024/01/27 00:46:51;;;;;;;6.10;5.30;;;;;;;2.30;78.46;99967.20;105869;1258;63833;-70
2024/01/27 00:49:18;;;;;;;7.00;5.30;;;;;;;2.30;78.57;99968.75;105907;1257;60444;-69
2024/01/27 00:51:45;;;;;;;6.70;5.30;;;;;;;2.32;78.49;99969.21;106106;1254;60388;-70
2024/01/27 00:54:11;;;;;;;7.90;5.70;;;;;;;2.34;78.54;99970.72;106054;1254;60380;-70
2024/01/27 00:56:38;;;;;;;7.90;5.70;;;;;;;2.33;78.56;99968.80;106101;1252;60456;-69
2024/01/27 00:59:05;;;;;;;7.00;5.70;;;;;;;2.32;78.55;99970.59;106100;1256;63865;-70
2024/01/27 01:01:32;;;;;;;7.40;5.80;;;;;;;2.31;78.53;99969.61;105948;1265;60353;-70
2024/01/27 01:03:59;;;;;;;7.10;5.70;;;;;;;2.30;78.55;99964.96;105830;1256;60443;-69
2024/01/27 01:06:25;;;;;;;6.10;5.30;;;;;;;2.30;78.58;99961.84;105930;1257;63674;-70
2024/01/27 01:08:52;;;;;;;6.70;5.20;;;;;;;2.30;78.56;99957.81;106069;1251;60519;-71
2024/01/27 01:11:19;;;;;;;6.20;5.30;;;;;;;2.29;78.56;99958.23;106102;1251;62578;-69
2024/01/27 01:13:46;;;;;;;6.40;5.40;;;;;;;2.38;78.23;99955.15;105938;1251;60466;-69
2024/01/27 01:16:13;;;;;;;6.80;5.50;;;;;;;2.31;78.43;99955.84;106010;1257;60309;-70
2024/01/27 01:18:40;;;;;;;6.60;5.70;;;;;;;2.30;78.51;99957.81;106278;1251;63830;-69
2024/01/27 01:21:07;;;;;;;7.20;5.70;;;;;;;2.31;78.60;99959.17;106146;1251;60454;-68
2024/01/27 01:23:34;;;;;;;8.10;5.40;;;;;;;2.32;78.62;99957.91;106128;1257;63715;-68
2024/01/27 01:26:01;;;;;;;6.40;5.40;;;;;;;2.32;78.54;99956.52;106141;1256;61975;-70
2024/01/27 01:28:28;;;;;;;6.40;5.20;;;;;;;2.32;78.57;99957.92;106193;1252;60444;-68
2024/01/27 01:30:55;;;;;;;5.80;5.20;;;;;;;2.32;78.59;99956.70;106176;1251;64512;-71
2024/01/27 01:33:22;;;;;;;6.90;6.10;;;;;;;2.32;78.53;99951.33;106143;1256;60478;-68
2024/01/27 01:35:49;;;;;;;6.80;5.80;;;;;;;2.33;78.60;99949.20;106260;1256;63844;-70
2024/01/27 01:38:16;;;;;;;8.10;5.60;;;;;;;2.33;78.57;99945.54;106072;1251;60515;-71
2024/01/27 01:40:43;;;;;;;6.90;5.60;;;;;;;2.33;78.66;99948.66;106079;1251;60338;-69
2024/01/27 01:43:12;;;;;;;6.00;5.10;;;;;;;2.33;78.61;99949.38;106268;1256;60812;-69
2024/01/27 01:45:39;;;;;;;7.40;5.20;;;;;;;2.33;78.61;99948.15;105981;1251;60666;-70
2024/01/27 01:48:07;;;;;;;7.30;5.60;;;;;;;2.33;78.66;99944.85;105777;1258;62491;-70
2024/01/27 01:50:33;;;;;;;6.50;5.60;;;;;;;2.32;78.61;99944.36;105921;1257;60365;-70
2024/01/27 01:53:00;;;;;;;6.90;5.30;;;;;;;2.32;78.61;99943.16;106040;1251;60511;-69
2024/01/27 01:55:27;;;;;;;11.10;5.80;;;;;;;2.31;78.62;99945.08;105879;1251;64947;-71
2024/01/27 01:57:54;;;;;;;7.10;5.70;;;;;;;2.32;78.65;99947.67;105987;1254;60511;-69
2024/01/27 02:00:21;;;;;;;6.10;5.10;;;;;;;2.33;78.67;99949.05;106065;1251;64222;-69
2024/01/27 02:02:48;;;;;;;7.20;5.40;;;;;;;2.31;78.62;99953.79;105860;1257;60526;-69
2024/01/27 02:05:14;;;;;;;8.90;6.30;;;;;;;2.27;78.61;99952.59;105857;1254;60348;-69
2024/01/27 02:07:41;;;;;;;7.10;5.60;;;;;;;2.27;78.67;99951.89;105900;1257;65047;-70
2024/01/27 02:10:17;;;;;;;8.70;6.30;;;;;;;2.28;78.64;99951.65;105938;1252;60617;-71
2024/01/27 02:12:45;;;;;;;7.80;6.40;;;;;;;2.28;78.69;99953.22;106078;1254;63841;-71
2024/01/27 02:15:15;;;;;;;8.10;6.70;;;;;;;2.29;78.74;99952.46;105976;1254;60565;-68
2024/01/27 02:17:42;;;;;;;8.80;6.50;;;;;;;2.32;78.73;99955.50;106015;1257;60549;-69
2024/01/27 02:20:09;;;;;;;8.00;6.30;;;;;;;2.33;78.75;99959.45;106156;1258;65154;-70
2024/01/27 02:22:36;;;;;;;9.00;6.60;;;;;;;2.33;78.69;99958.75;106043;1254;60431;-70
2024/01/27 02:25:03;;;;;;;11.30;6.90;;;;;;;2.30;78.71;99960.80;105834;1251;65943;-71
2024/01/27 02:27:30;;;;;;;8.60;6.50;;;;;;;2.29;78.73;99957.35;106087;1257;60425;-70
2024/01/27 02:29:57;;;;;;;8.30;6.60;;;;;;;2.29;78.79;99957.16;106240;1251;60453;-70
2024/01/27 02:32:24;;;;;;;8.60;6.50;;;;;;;2.29;78.77;99960.29;106355;1256;64997;-70
2024/01/27 02:34:50;;;;;;;8.40;6.90;;;;;;;2.29;78.71;99960.48;106644;1251;60478;-69
2024/01/27 02:37:18;;;;;;;8.20;6.20;;;;;;;2.30;78.79;99960.77;106272;1257;63378;-68
2024/01/27 02:39:45;;;;;;;8.80;6.70;;;;;;;2.30;78.80;99959.70;106037;1257;60369;-69
2024/01/27 02:42:11;;;;;;;9.80;7.60;;;;;;;2.31;78.76;99961.79;105906;1256;59009;-70
2024/01/27 02:44:38;;;;;;;8.10;6.40;;;;;;;2.32;78.74;99965.04;106034;1257;65013;-70
2024/01/27 02:47:05;;;;;;;8.90;7.20;;;;;;;2.30;78.70;99965.96;106202;1256;60460;-69
2024/01/27 02:49:32;;;;;;;9.00;6.80;;;;;;;2.29;78.75;99962.36;106146;1256;64067;-69
2024/01/27 02:51:58;;;;;;;8.00;6.80;;;;;;;2.30;78.73;99963.89;105917;1257;60802;-69
2024/01/27 02:54:27;;;;;;;8.50;7.00;;;;;;;2.31;78.73;99964.73;106168;1254;60411;-70
2024/01/27 02:56:54;;;;;;;9.10;6.80;;;;;;;2.29;78.73;99965.50;106203;1254;63833;-70
2024/01/27 02:59:20;;;;;;;7.90;6.10;;;;;;;2.29;78.73;99965.35;106086;1254;60472;-70
2024/01/27 03:01:47;;;;;;;7.10;5.70;;;;;;;2.30;78.77;99965.98;105949;1251;63806;-68
2024/01/27 03:04:14;;;;;;;7.40;6.10;;;;;;;2.30;78.74;99964.74;105881;1251;60432;-68
2024/01/27 03:06:41;;;;;;;7.00;5.80;;;;;;;2.30;78.74;99962.30;106028;1252;60428;-70
2024/01/27 03:09:07;;;;;;;9.10;6.20;;;;;;;2.29;78.78;99962.75;106151;1256;64953;-69
2024/01/27 03:11:34;;;;;;;7.40;5.90;;;;;;;2.28;78.71;99964.02;106171;1258;60481;-69
2024/01/27 03:14:01;;;;;;;8.50;6.60;;;;;;;2.28;78.70;99966.93;105978;1256;62455;-69
2024/01/27 03:16:28;;;;;;;8.70;6.80;;;;;;;2.30;78.76;99967.36;106277;1251;60374;-69
2024/01/27 03:18:54;;;;;;;8.70;6.60;;;;;;;2.31;78.70;99967.51;105995;1253;60526;-70
2024/01/27 03:21:21;;;;;;;9.20;6.40;;;;;;;2.31;78.69;99967.16;106038;1254;64983;-70
2024/01/27 03:23:48;;;;;;;7.70;6.10;;;;;;;2.30;78.67;99969.27;106259;1251;60395;-69
2024/01/27 03:26:15;;;;;;;7.50;5.80;;;;;;;2.29;78.60;99967.23;106007;1251;63824;-71
2024/01/27 03:28:42;;;;;;;6.80;6.00;;;;;;;2.27;78.58;99967.52;106130;1257;60549;-68
2024/01/27 03:31:08;;;;;;;7.80;6.30;;;;;;;2.26;78.56;99969.67;106100;1251;60421;-70
2024/01/27 03:33:35;;;;;;;7.10;6.30;;;;;;;2.27;78.59;99974.30;105825;1259;65186;-70
2024/01/27 03:36:02;;;;;;;7.30;6.20;;;;;;;2.27;78.57;99975.88;106105;1253;60360;-69
2024/01/27 03:38:29;;;;;;;8.50;7.10;;;;;;;2.27;78.49;99975.38;106060;1254;64141;-70
2024/01/27 03:40:56;;;;;;;9.60;7.20;;;;;;;2.27;78.53;99973.63;106121;1251;60447;-70
2024/01/27 03:43:23;;;;;;;9.30;7.60;;;;;;;2.28;78.64;99977.54;105859;1254;60444;-71
2024/01/27 03:47:51;;;;;;;11.70;8.30;;;;;;;2.29;78.51;99974.58;102445;1292;601105;-71
2024/01/27 03:50:20;;;;;;;10.70;8.80;;;;;;;2.26;78.45;99969.35;108419;1266;57038;-67
2024/01/27 03:52:47;;;;;;;10.70;8.90;;;;;;;2.27;78.49;99970.67;108468;1266;57073;-69
2024/01/27 03:55:15;;;;;;;12.50;9.90;;;;;;;2.27;78.57;99973.77;108478;1266;63373;-69
2024/01/27 03:57:42;;;;;;;13.00;9.90;;;;;;;2.28;78.48;99973.57;108544;1266;65986;-70
2024/01/27 04:00:13;;;;;;;14.40;11.60;;;;;;;2.29;78.41;99972.61;108439;1266;62508;-68
2024/01/27 04:02:41;;;;;;;14.30;11.70;;;;;;;2.31;78.46;99973.43;108475;1263;178726;-70
2024/01/27 04:05:08;;;;;;;16.30;12.20;;;;;;;2.33;78.49;99975.58;108655;1263;57295;-68
2024/01/27 04:07:36;;;;;;;12.90;11.00;;;;;;;2.34;78.45;99975.87;108756;1263;62024;-68
2024/01/27 04:10:04;;;;;;;14.20;12.10;;;;;;;2.35;78.34;99974.98;108653;1264;58177;-70
2024/01/27 04:12:31;;;;;;;15.50;12.40;;;;;;;2.33;78.25;99976.11;108764;1263;63698;-69
2024/01/27 04:15:00;;;;;;;14.70;12.40;;;;;;;2.31;78.33;99980.88;108709;1265;57285;-69
2024/01/27 04:17:27;;;;;;;14.50;11.80;;;;;;;2.32;78.34;99981.20;109089;1257;57480;-70
2024/01/27 04:19:55;;;;;;;16.90;11.70;;;;;;;2.32;78.32;99983.27;109085;1257;62808;-69
2024/01/27 04:22:22;;;;;;;14.70;12.40;;;;;;;2.29;78.25;99983.58;109033;1256;58101;-70
2024/01/27 04:24:50;;;;;;;16.30;12.20;;;;;;;2.28;78.25;99982.45;109065;1256;63732;-69
2024/01/27 04:27:17;;;;;;;14.00;12.10;;;;;;;2.30;78.26;99980.74;109138;1257;57369;-69
2024/01/27 04:29:45;;;;;;;13.90;11.30;;;;;;;2.33;78.25;99981.31;109104;1257;57451;-70
2024/01/27 04:32:13;;;;;;;13.80;11.30;;;;;;;2.36;78.30;99984.31;109155;1256;64198;-69
2024/01/27 04:34:40;;;;;;;12.50;10.90;;;;;;;2.36;78.26;99986.87;109038;1257;57394;-71
2024/01/27 04:37:08;;;;;;;13.70;10.60;;;;;;;2.38;78.29;99988.88;109155;1257;62438;-71
2024/01/27 04:39:35;;;;;;;14.20;11.00;;;;;;;2.39;78.19;99988.27;109171;1257;57379;-71
2024/01/27 04:42:03;;;;;;;13.30;10.70;;;;;;;2.41;78.24;99991.49;109165;1257;57400;-70
2024/01/27 04:44:31;;;;;;;12.40;10.30;;;;;;;2.40;78.23;99990.67;109145;1256;63726;-70
2024/01/27 04:46:58;;;;;;;11.20;9.40;;;;;;;2.39;78.16;99995.56;109086;1259;57490;-70
2024/01/27 04:49:27;;;;;;;12.20;10.20;;;;;;;2.40;78.11;99993.61;109107;1256;63808;-70
2024/01/27 04:51:54;;;;;;;12.00;10.70;;;;;;;2.41;78.13;99995.84;109031;1256;57341;-70
2024/01/27 04:54:22;;;;;;;12.80;10.40;;;;;;;2.41;78.12;99996.35;109174;1256;57263;-69
2024/01/27 04:56:49;;;;;;;13.80;11.30;;;;;;;2.43;78.05;99995.42;109119;1257;64125;-70
2024/01/27 04:59:17;;;;;;;13.20;11.50;;;;;;;2.44;77.94;99997.27;109157;1257;57583;-69
2024/01/27 05:01:45;;;;;;;16.50;11.50;;;;;;;2.45;78.04;100000.50;109089;1257;62555;-69
2024/01/27 05:04:13;;;;;;;16.20;12.40;;;;;;;2.45;77.99;99996.13;109122;1256;57390;-69
2024/01/27 05:06:45;;;;;;;15.30;12.40;;;;;;;2.46;78.00;99996.11;109104;1257;57551;-69
2024/01/27 05:09:13;;;;;;;14.00;11.80;;;;;;;2.43;78.00;99999.54;109180;1253;64477;-69
2024/01/27 05:11:42;;;;;;;15.40;12.10;;;;;;;2.43;78.06;99999.94;109360;1254;58204;-70
2024/01/27 05:14:10;;;;;;;14.80;12.30;;;;;;;2.44;78.03;100003.53;109369;1254;63694;-69
2024/01/27 05:16:37;;;;;;;14.80;12.40;;;;;;;2.45;78.02;100005.38;109316;1257;57402;-68
2024/01/27 05:19:05;;;;;;;13.00;11.10;;;;;;;2.46;78.01;100005.48;109362;1254;57349;-69
2024/01/27 05:21:32;;;;;;;14.10;11.50;;;;;;;2.46;77.94;100006.85;109367;1254;64154;-68
2024/01/27 05:24:00;;;;;;;20.20;16.40;;;;;;;2.46;77.91;100013.86;109292;1254;58435;-67
2024/01/27 05:31:02;;;;;;;52.90;41.20;;;;;;;2.46;77.94;100020.97;109345;1257;57602;-71
2024/01/27 05:33:29;;;;;;;57.60;45.60;;;;;;;2.46;77.91;100022.19;109401;1253;57383;-70
2024/01/27 05:35:57;;;;;;;20.70;16.70;;;;;;;2.46;77.87;100023.05;109346;1253;62846;-69
2024/01/27 05:47:33;;;;;;;13.20;10.40;;;;;;;2.39;77.72;100025.65;109298;1259;57303;-70
2024/01/27 05:54:36;;;;;;;11.80;10.00;;;;;;;2.37;77.78;100028.02;109419;1253;62931;-67
2024/01/27 05:57:04;;;;;;;13.00;11.00;;;;;;;2.36;77.77;100029.98;109398;1254;58143;-70
2024/01/27 05:59:31;;;;;;;13.40;10.40;;;;;;;2.37;77.83;100031.48;109364;1255;62435;-72
2024/01/27 06:01:59;;;;;;;14.00;11.20;;;;;;;2.38;77.68;100035.24;109237;1254;57304;-71
2024/01/27 06:04:26;;;;;;;13.50;11.10;;;;;;;2.39;77.72;100037.11;109386;1254;57342;-70
2024/01/27 06:06:54;;;;;;;13.90;11.30;;;;;;;2.41;77.72;100042.73;109208;1254;64131;-71
2024/01/27 06:09:22;;;;;;;14.50;12.10;;;;;;;2.43;77.73;100044.23;109189;1254;58263;-71
2024/01/27 06:11:49;;;;;;;13.40;11.80;;;;;;;2.44;77.72;100045.05;109182;1260;62480;-71
2024/01/27 06:14:17;;;;;;;12.60;10.80;;;;;;;2.44;77.74;100045.40;109294;1254;57423;-69
2024/01/27 06:16:44;;;;;;;11.40;10.20;;;;;;;2.43;77.66;100046.66;109177;1254;57399;-70
2024/01/27 06:19:12;;;;;;;13.80;11.20;;;;;;;2.42;77.65;100050.01;109223;1254;64262;-69
2024/01/27 06:21:40;;;;;;;13.10;11.30;;;;;;;2.40;77.62;100054.80;109296;1255;57368;-70
2024/01/27 06:24:07;;;;;;;13.40;11.60;;;;;;;2.40;77.55;100055.51;109165;1259;63775;-70
2024/01/27 06:26:35;;;;;;;13.50;11.20;;;;;;;2.41;77.67;100055.07;109272;1259;57418;-70
2024/01/27 06:29:02;;;;;;;12.20;10.90;;;;;;;2.44;77.68;100055.12;109363;1254;57397;-70
2024/01/27 06:31:30;;;;;;;13.30;10.90;;;;;;;2.46;77.67;100060.42;109290;1254;64164;-69
2024/01/27 06:33:57;;;;;;;14.80;11.10;;;;;;;2.45;77.63;100062.34;109306;1254;58242;-69
2024/01/27 06:36:27;;;;;;;16.80;13.70;;;;;;;2.45;77.66;100066.16;109203;1254;63775;-70
2024/01/27 06:38:54;;;;;;;21.30;16.90;;;;;;;2.45;77.67;100067.38;109277;1257;57335;-68
2024/01/27 06:41:22;;;;;;;17.90;13.90;;;;;;;2.46;77.66;100068.02;109297;1254;57261;-70
2024/01/27 06:43:50;;;;;;;19.50;16.10;;;;;;;2.49;77.67;100067.35;109194;1254;64095;-70
2024/01/27 06:46:17;;;;;;;20.70;16.40;;;;;;;2.52;77.67;100068.40;109305;1254;58545;-69
2024/01/27 06:48:45;;;;;;;25.50;20.00;;;;;;;2.54;77.67;100067.83;109272;1254;62914;-69
2024/01/27 06:51:12;;;;;;;24.90;19.70;;;;;;;2.52;77.60;100066.33;109299;1257;57309;-71
2024/01/27 06:53:40;;;;;;;30.10;22.10;;;;;;;2.52;77.55;100069.83;109318;1254;57455;-70
2024/01/27 06:56:08;;;;;;;32.30;23.10;;;;;;;2.51;77.57;100067.10;109321;1254;64279;-69
2024/01/27 06:58:36;;;;;;;28.10;20.50;;;;;;;2.52;77.54;100067.02;109307;1258;57364;-69
2024/01/27 07:01:04;;;;;;;27.70;20.40;;;;;;;2.54;77.57;100068.66;109270;1260;63799;-70
2024/01/27 07:03:31;;;;;;;22.90;17.50;;;;;;;2.55;77.54;100069.86;109258;1254;57322;-70
2024/01/27 07:06:02;;;;;;;23.80;18.00;;;;;;;2.53;77.47;100068.38;109324;1254;57266;-71
2024/01/27 07:08:29;;;;;;;25.00;18.30;;;;;;;2.52;77.53;100069.45;109276;1254;62836;-69
2024/01/27 07:10:57;;;;;;;26.40;18.00;;;;;;;2.53;77.45;100071.86;109193;1254;58183;-69
2024/01/27 07:18:19;;;;;;;19.10;14.60;;;;;;;2.56;77.50;100075.34;109479;1254;57419;-70
2024/01/27 07:20:47;;;;;;;20.80;16.20;;;;;;;2.57;77.47;100076.86;109202;1254;57220;-70
2024/01/27 07:28:05;;;;;;;19.00;13.50;;;;;;;2.58;77.41;100078.02;109441;1254;58239;-70
2024/01/27 07:30:33;;;;;;;18.00;13.00;;;;;;;2.60;77.39;100078.96;109274;1254;62519;-69
2024/01/27 07:33:01;;;;;;;14.50;10.70;;;;;;;2.64;77.46;100080.70;109264;1257;57506;-71
2024/01/27 07:35:29;;;;;;;14.10;11.20;;;;;;;2.65;77.39;100083.92;109289;1254;57423;-71
2024/01/27 07:37:56;;;;;;;13.40;10.90;;;;;;;2.67;77.44;100086.78;109261;1254;62828;-70
2024/01/27 07:40:24;;;;;;;12.30;10.50;;;;;;;2.70;77.43;100083.17;109187;1262;57402;-71
2024/01/27 07:42:51;;;;;;;11.90;10.00;;;;;;;2.72;77.43;100084.63;109273;1254;62690;-71
2024/01/27 07:45:19;;;;;;;11.00;9.40;;;;;;;2.76;77.46;100087.73;109268;1254;57430;-70
2024/01/27 07:47:47;;;;;;;11.50;9.20;;;;;;;2.79;77.45;100088.08;109300;1254;57351;-71
2024/01/27 07:50:14;;;;;;;11.90;9.50;;;;;;;2.81;77.44;100090.59;109265;1254;63020;-70
2024/01/27 07:52:42;;;;;;;10.50;9.20;;;;;;;2.83;77.42;100088.38;109310;1254;58420;-71
2024/01/27 07:55:10;;;;;;;10.00;8.90;;;;;;;2.85;77.34;100089.14;109162;1254;62467;-70
2024/01/27 07:57:37;;;;;;;9.90;8.50;;;;;;;2.88;77.31;100092.98;109279;1254;57363;-70
2024/01/27 08:00:06;;;;;;;9.50;7.60;;;;;;;2.91;77.36;100093.52;109179;1260;57309;-71
2024/01/27 08:02:34;;;;;;;9.50;7.90;;;;;;;2.94;77.33;100093.36;109162;1254;64190;-71
2024/01/27 08:05:03;;;;;;;8.10;7.30;;;;;;;2.96;77.30;100090.84;109186;1255;58173;-71
2024/01/27 08:07:31;;;;;;;12.90;9.80;;;;;;;2.95;76.99;100090.89;109212;1257;75341;-71
2024/01/27 08:09:59;;;;;;;9.40;7.90;;;;;;;2.92;77.01;100091.39;109195;1255;58145;-68
2024/01/27 08:12:27;;;;;;;9.50;8.20;;;;;;;2.93;77.06;100092.04;109130;1257;58058;-71
2024/01/27 08:14:55;;;;;;;8.70;7.80;;;;;;;2.95;77.08;100094.90;109150;1256;65852;-68
2024/01/27 08:17:22;;;;;;;8.10;7.30;;;;;;;2.98;77.04;100094.02;109210;1256;58216;-68
2024/01/27 08:19:51;;;;;;;9.20;7.40;;;;;;;3.02;77.08;100095.20;109114;1257;62561;-71
2024/01/27 08:26:53;;;;;;;11.20;8.60;;;;;;;3.13;77.13;100102.95;109084;1256;58233;-74
2024/01/27 08:29:21;;;;;;;10.20;8.70;;;;;;;3.19;77.04;100108.41;109051;1257;64901;-70
2024/01/27 08:31:48;;;;;;;11.90;8.80;;;;;;;3.22;77.05;100108.23;109006;1257;58379;-73
2024/01/27 08:34:17;;;;;;;10.70;8.90;;;;;;;3.26;77.02;100109.92;109072;1256;63799;-75
2024/01/27 08:36:44;;;;;;;10.60;9.00;;;;;;;3.32;76.98;100113.45;109000;1257;58338;-70
2024/01/27 08:39:12;;;;;;;10.60;8.70;;;;;;;3.36;77.05;100112.51;109090;1257;58138;-72
2024/01/27 08:41:41;;;;;;;9.80;8.40;;;;;;;3.39;76.87;100109.60;109001;1257;63652;-73
2024/01/27 08:44:08;;;;;;;10.40;9.30;;;;;;;3.40;76.88;100114.27;109168;1256;58258;-72
2024/01/27 08:46:36;;;;;;;10.20;9.10;;;;;;;3.41;76.72;100118.88;109180;1257;63717;-72
2024/01/27 08:49:06;;;;;;;10.20;9.00;;;;;;;3.61;76.12;100116.59;109207;1257;58196;-72
2024/01/27 08:51:34;;;;;;;10.00;8.90;;;;;;;3.45;76.22;100121.79;109186;1257;58453;-73
2024/01/27 08:54:02;;;;;;;9.50;8.50;;;;;;;3.42;76.32;100122.64;109200;1256;65066;-71
2024/01/27 08:56:29;;;;;;;11.00;9.40;;;;;;;3.40;76.24;100124.48;109192;1257;58163;-71
2024/01/27 08:58:57;;;;;;;11.20;9.30;;;;;;;3.40;76.22;100123.25;109126;1256;63706;-72
2024/01/27 09:01:25;;;;;;;11.70;9.50;;;;;;;3.43;76.27;100124.52;109061;1256;58067;-72
2024/01/27 09:03:53;;;;;;;11.00;9.40;;;;;;;3.46;76.26;100123.45;109256;1256;58677;-72
2024/01/27 09:06:21;;;;;;;10.40;8.80;;;;;;;3.49;76.23;100122.30;109171;1257;63671;-68
2024/01/27 09:08:52;;;;;;;17.20;14.50;;;;;;;3.52;76.27;100122.83;109198;1255;58192;-71
2024/01/27 09:11:27;;;;;;;13.00;11.40;;;;;;;3.54;76.21;100121.11;109030;1256;62559;-71
2024/01/27 09:13:54;;;;;;;15.00;13.40;;;;;;;3.53;75.95;100123.45;109129;1256;58139;-71
2024/01/27 09:16:24;;;;;;;12.90;10.70;;;;;;;3.52;75.80;100120.07;109135;1255;58249;-75
2024/01/27 09:18:52;;;;;;;10.90;9.30;;;;;;;3.53;75.80;100118.20;109078;1256;64929;-73
2024/01/27 09:21:22;;;;;;;11.50;9.90;;;;;;;3.56;75.87;100114.73;109141;1256;58235;-71
2024/01/27 09:23:50;;;;;;;13.90;11.40;;;;;;;3.59;75.80;100116.36;109158;1257;62537;-73
2024/01/27 09:26:18;;;;;;;11.30;9.30;;;;;;;3.59;75.69;100116.19;109148;1257;58115;-75
2024/01/27 09:28:53;;;;;;;10.50;8.60;;;;;;;3.56;75.59;100114.58;109168;1257;58052;-75
2024/01/27 09:31:22;;;;;;;9.90;8.90;;;;;;;3.57;75.45;100118.73;109162;1257;64954;-72
2024/01/27 09:33:52;;;;;;;10.90;9.00;;;;;;;3.57;75.42;100118.16;109197;1257;60683;-72
2024/01/27 09:36:20;;;;;;;9.70;8.50;;;;;;;3.57;75.32;100119.75;109157;1257;62465;-73
2024/01/27 09:38:48;;;;;;;11.00;8.90;;;;;;;3.56;75.20;100118.23;109112;1258;58117;-71
2024/01/27 09:41:18;;;;;;;10.50;9.40;;;;;;;3.56;75.16;100119.27;109167;1256;58125;-72
2024/01/27 09:48:36;;;;;;;9.80;8.40;;;;;;;3.54;74.83;100113.13;109123;1257;58284;-74
2024/01/27 09:51:09;;;;;;;10.20;8.50;;;;;;;3.52;74.74;100116.02;109095;1257;66255;-71
2024/01/27 09:53:39;;;;;;;10.00;8.90;;;;;;;3.52;74.73;100121.05;109048;1260;58174;-70
2024/01/27 09:56:07;;;;;;;8.50;7.60;;;;;;;3.56;74.67;100119.78;109011;1260;60497;-71
2024/01/27 09:58:35;;;;;;;9.50;8.10;;;;;;;3.54;74.42;100123.58;109004;1257;64973;-73
2024/01/27 10:01:03;;;;;;;8.90;7.20;;;;;;;3.53;74.38;100122.08;108957;1257;58226;-68
2024/01/27 10:03:31;;;;;;;9.00;8.00;;;;;;;3.56;74.37;100123.95;108973;1257;63798;-68
2024/01/27 10:06:01;;;;;;;9.10;8.10;;;;;;;3.62;74.35;100129.05;108919;1257;63050;-69
2024/01/27 10:13:26;;;;;;;8.90;7.60;;;;;;;3.63;73.95;100132.11;108884;1262;63934;-72
2024/01/27 10:16:02;;;;;;;;;;;;;;;3.62;73.79;100132.54;108897;1262;59883;-71
2024/01/27 10:18:32;;;;;;;9.30;7.40;;;;;;;3.64;73.73;100137.09;108764;1263;74248;-70
2024/01/27 10:21:16;;;;;;;10.20;8.50;;;;;;;3.62;73.42;100137.59;108732;1262;58151;-71
2024/01/27 10:23:46;;;;;;;9.90;8.90;;;;;;;3.61;73.46;100136.74;108823;1263;58280;-71
2024/01/27 10:26:16;;;;;;;9.60;8.30;;;;;;;3.63;73.41;100138.22;108742;1262;64946;-71
2024/01/27 10:28:59;;;;;;;9.90;8.50;;;;;;;3.63;73.32;100143.09;108858;1263;58299;-69
2024/01/27 10:31:30;;;;;;;8.90;7.70;;;;;;;3.61;73.23;100140.41;108814;1262;63971;-69
2024/01/27 10:34:04;;;;;;;9.70;8.10;;;;;;;3.60;73.22;100142.93;108766;1263;58328;-67
2024/01/27 10:41:05;;;;;;;9.60;8.10;;;;;;;3.56;73.09;100151.33;108901;1257;65751;-73
2024/01/27 10:43:38;;;;;;;8.90;8.00;;;;;;;3.54;73.07;100150.57;108807;1257;58234;-72
2024/01/27 10:46:10;;;;;;;8.80;7.70;;;;;;;3.56;73.07;100152.86;108849;1257;62551;-71
2024/01/27 10:48:41;;;;;;;9.10;8.20;;;;;;;3.55;73.03;100155.89;108897;1260;58180;-72
2024/01/27 10:51:12;;;;;;;8.90;8.00;;;;;;;3.56;73.04;100156.36;109096;1257;58294;-74
2024/01/27 10:53:48;;;;;;;11.10;8.60;;;;;;;3.58;73.06;100159.95;109043;1256;64964;-72
2024/01/27 10:56:23;;;;;;;10.70;8.70;;;;;;;3.59;73.04;100162.34;109072;1257;59207;-72
2024/01/27 10:58:54;;;;;;;9.90;8.70;;;;;;;3.57;72.92;100161.36;108970;1257;73635;-70
2024/01/27 11:01:26;;;;;;;10.00;9.00;;;;;;;3.57;72.94;100164.16;109085;1260;58281;-72
2024/01/27 11:03:57;;;;;;;10.90;9.20;;;;;;;3.57;73.08;100170.91;108988;1257;58308;-69
2024/01/27 11:13:42;;;;;;;10.40;9.20;;;;;;;3.60;73.13;100177.91;102863;1291;600250;-71
2024/01/27 11:16:17;;;;;;;11.20;9.70;;;;;;;3.59;73.05;100183.92;105627;1262;59299;-71
2024/01/27 11:18:45;;;;;;;11.80;9.80;;;;;;;3.58;73.11;100183.96;105917;1256;59382;-70
2024/01/27 11:21:15;;;;;;;12.60;10.20;;;;;;;3.57;73.13;100185.04;105767;1263;65631;-69
2024/01/27 11:23:44;;;;;;;12.30;10.50;;;;;;;3.57;73.16;100188.52;105753;1256;66070;-69
2024/01/27 11:26:20;;;;;;;11.80;10.30;;;;;;;3.57;73.19;100187.29;105448;1262;238622;-70
2024/01/27 11:28:49;;;;;;;12.10;10.70;;;;;;;3.57;73.28;100190.07;105903;1253;59229;-70
2024/01/27 11:31:21;;;;;;;11.60;10.00;;;;;;;3.56;73.30;100191.02;105776;1253;59259;-69
2024/01/27 11:33:51;;;;;;;12.10;10.60;;;;;;;3.54;73.32;100190.77;105883;1254;63001;-70
2024/01/27 11:36:24;;;;;;;11.50;9.70;;;;;;;3.53;73.41;100191.35;105942;1258;59319;-70
2024/01/27 11:38:53;;;;;;;10.80;9.70;;;;;;;3.51;73.39;100193.34;106162;1260;63709;-70
2024/01/27 11:48:43;;;;;;;12.20;10.70;;;;;;;3.43;73.54;100195.16;102731;1292;600505;-70
2024/01/27 11:51:12;;;;;;;12.20;10.80;;;;;;;3.40;73.56;100195.31;105011;1267;59339;-70
2024/01/27 11:53:39;;;;;;;11.50;10.30;;;;;;;3.40;73.58;100197.95;105032;1269;59229;-70
2024/01/27 11:56:07;;;;;;;12.20;10.90;;;;;;;3.39;73.67;100203.25;105208;1269;65903;-68
2024/01/27 11:58:35;;;;;;;12.00;10.70;;;;;;;3.38;73.75;100206.05;104790;1267;59267;-68
2024/01/27 12:01:03;;;;;;;11.60;10.30;;;;;;;3.38;73.75;100210.93;105008;1267;66473;-69
2024/01/27 12:03:30;;;;;;;12.10;10.30;;;;;;;3.36;73.86;100213.46;105395;1262;208408;-70
2024/01/27 12:05:58;;;;;;;12.00;9.90;;;;;;;3.33;73.87;100216.92;105501;1258;61590;-70
2024/01/27 12:08:27;;;;;;;13.30;10.80;;;;;;;3.32;73.94;100219.79;105717;1263;66266;-71
2024/01/27 12:10:55;;;;;;;11.70;10.50;;;;;;;3.30;73.87;100223.70;105653;1258;59231;-70
2024/01/27 12:13:23;;;;;;;11.80;10.40;;;;;;;3.27;73.91;100227.67;105595;1257;63798;-74
2024/01/27 12:15:50;;;;;;;12.30;10.10;;;;;;;3.26;74.00;100229.50;105677;1258;59729;-71
2024/01/27 12:18:18;;;;;;;12.40;10.90;;;;;;;3.24;74.06;100229.95;105864;1257;59240;-73
2024/01/27 12:20:57;;;;;;;12.50;11.20;;;;;;;3.21;74.14;100229.73;105695;1256;62822;-73
2024/01/27 12:23:28;;;;;;;12.10;10.30;;;;;;;3.20;74.17;100233.30;105676;1257;60329;-72
2024/01/27 12:25:58;;;;;;;11.80;10.60;;;;;;;3.16;74.15;100233.80;105502;1263;63696;-74
2024/01/27 12:28:26;;;;;;;11.90;10.70;;;;;;;3.11;74.22;100238.06;105674;1261;59599;-73